Time;durP1;ratioP1;P1;durP2;ratioP2;P2;SDS_P1;SDS_P2;PMS_P1;PMS_P2;Temp;Humidity;BMP_temperature;BMP_pressure;BME280_temperature;BME280_humidity;BME280_pressure;Samples;Min_cycle;Max_cycle;Signal;HPM_P1;HPM_P2
2023/06/29 00:00:24;;;;;;;3.80;2.65;;;;;;;;;;5024966;28;20233;-85
2023/06/29 00:02:52;;;;;;;2.97;2.47;;;;;;;;;;5023040;28;20672;-85
2023/06/29 00:05:21;;;;;;;2.55;2.35;;;;;;;;;;5021037;28;20231;-85
2023/06/29 00:07:48;;;;;;;3.10;2.80;;;;;;;;;;5022807;28;20208;-86
2023/06/29 00:10:15;;;;;;;5.60;3.08;;;;;;;;;;5025108;28;20726;-86
2023/06/29 00:12:43;;;;;;;3.08;2.50;;;;;;;;;;5024569;28;20621;-86
2023/06/29 00:15:11;;;;;;;4.18;3.10;;;;;;;;;;5020464;28;20235;-86
2023/06/29 00:17:38;;;;;;;3.70;2.60;;;;;;;;;;5021375;28;20239;-86
2023/06/29 00:20:09;;;;;;;4.97;2.87;;;;;;;;;;5024297;28;20230;-85
2023/06/29 00:22:36;;;;;;;4.68;2.97;;;;;;;;;;5024779;28;20732;-85
2023/06/29 00:25:04;;;;;;;2.72;2.53;;;;;;;;;;5020933;28;20336;-85
2023/06/29 00:27:31;;;;;;;4.97;2.58;;;;;;;;;;5021395;28;20652;-86
2023/06/29 00:29:59;;;;;;;3.53;2.80;;;;;;;;;;5023256;28;20228;-86
2023/06/29 00:32:26;;;;;;;2.80;2.60;;;;;;;;;;5018587;28;20215;-86
2023/06/29 00:34:54;;;;;;;5.63;2.47;;;;;;;;;;5022537;28;20231;-86
2023/06/29 00:37:21;;;;;;;4.33;2.67;;;;;;;;;;5019033;28;20704;-85
2023/06/29 00:39:48;;;;;;;2.90;2.70;;;;;;;;;;5021902;28;20277;-85
2023/06/29 00:42:15;;;;;;;3.37;2.60;;;;;;;;;;5025000;28;20230;-86
2023/06/29 00:44:42;;;;;;;3.03;2.50;;;;;;;;;;5022998;28;20237;-85
2023/06/29 00:47:11;;;;;;;3.90;2.23;;;;;;;;;;5021128;28;20203;-85
2023/06/29 00:49:38;;;;;;;2.67;2.47;;;;;;;;;;5020356;28;20601;-85
2023/06/29 00:52:05;;;;;;;2.70;2.50;;;;;;;;;;5024318;28;20683;-86
2023/06/29 00:54:32;;;;;;;2.73;2.53;;;;;;;;;;5017197;28;20341;-85
2023/06/29 00:56:59;;;;;;;2.93;2.43;;;;;;;;;;5023132;28;20215;-85
2023/06/29 00:59:26;;;;;;;3.40;2.83;;;;;;;;;;5028083;28;20237;-85
2023/06/29 01:01:53;;;;;;;4.93;2.77;;;;;;;;;;5032201;28;20214;-85
2023/06/29 01:04:24;;;;;;;3.83;2.40;;;;;;;;;;5031886;28;20234;-85
2023/06/29 01:06:54;;;;;;;2.73;2.53;;;;;;;;;;5029147;28;20211;-85
2023/06/29 01:09:21;;;;;;;3.70;3.00;;;;;;;;;;5023982;28;20226;-85
2023/06/29 01:11:49;;;;;;;4.13;2.90;;;;;;;;;;5023060;28;20708;-84
2023/06/29 01:14:17;;;;;;;3.40;2.83;;;;;;;;;;5020392;28;20238;-85
2023/06/29 01:16:44;;;;;;;3.37;2.73;;;;;;;;;;5020665;28;20214;-85
2023/06/29 01:19:13;;;;;;;3.27;2.80;;;;;;;;;;5023910;28;20284;-85
2023/06/29 01:21:45;;;;;;;2.83;2.53;;;;;;;;;;5024407;28;20208;-85
2023/06/29 01:24:13;;;;;;;4.03;2.70;;;;;;;;;;5024390;28;20715;-85
2023/06/29 01:26:42;;;;;;;3.67;2.80;;;;;;;;;;5023493;28;20230;-85
2023/06/29 01:29:09;;;;;;;3.23;2.43;;;;;;;;;;5028142;28;20309;-86
2023/06/29 01:31:36;;;;;;;4.77;2.40;;;;;;;;;;5020387;28;20219;-85
2023/06/29 01:34:03;;;;;;;4.63;2.73;;;;;;;;;;5022227;28;20307;-85
2023/06/29 01:36:34;;;;;;;3.20;2.90;;;;;;;;;;5023824;28;20214;-86
2023/06/29 01:39:03;;;;;;;4.03;3.20;;;;;;;;;;5020614;28;20738;-85
2023/06/29 01:41:31;;;;;;;3.73;2.60;;;;;;;;;;5020440;28;20207;-85
2023/06/29 01:44:00;;;;;;;2.83;2.53;;;;;;;;;;5019827;28;20239;-85
2023/06/29 01:46:27;;;;;;;4.37;2.63;;;;;;;;;;5020880;28;20227;-86
2023/06/29 01:48:54;;;;;;;2.73;2.53;;;;;;;;;;5021955;28;20241;-85
2023/06/29 01:51:22;;;;;;;2.73;2.53;;;;;;;;;;5024986;28;20214;-85
2023/06/29 01:53:50;;;;;;;3.03;2.80;;;;;;;;;;5022685;28;20246;-85
2023/06/29 01:56:17;;;;;;;4.40;2.70;;;;;;;;;;5020854;28;20490;-85
2023/06/29 01:58:44;;;;;;;5.23;3.10;;;;;;;;;;5019925;28;20235;-85
2023/06/29 02:01:12;;;;;;;4.27;2.97;;;;;;;;;;5020453;28;20417;-85
2023/06/29 02:03:39;;;;;;;3.27;2.73;;;;;;;;;;5019843;28;20243;-85
2023/06/29 02:06:07;;;;;;;3.40;3.10;;;;;;;;;;5023212;28;20230;-85
2023/06/29 02:08:34;;;;;;;2.67;2.47;;;;;;;;;;5022838;28;20234;-85
2023/06/29 02:11:01;;;;;;;5.53;2.93;;;;;;;;;;5021320;28;20207;-85
2023/06/29 02:13:28;;;;;;;3.60;2.77;;;;;;;;;;5020042;28;20289;-85
2023/06/29 02:15:55;;;;;;;4.93;2.80;;;;;;;;;;5021451;28;20669;-85
2023/06/29 02:18:23;;;;;;;4.33;3.20;;;;;;;;;;5026217;28;20242;-85
2023/06/29 02:20:50;;;;;;;4.63;2.87;;;;;;;;;;5020873;28;20207;-85
2023/06/29 02:23:17;;;;;;;2.93;2.70;;;;;;;;;;5023125;28;20304;-85
2023/06/29 02:25:44;;;;;;;7.53;3.00;;;;;;;;;;5023555;28;20222;-85
2023/06/29 02:28:12;;;;;;;2.90;2.70;;;;;;;;;;5022946;28;20218;-86
2023/06/29 02:30:39;;;;;;;3.57;2.47;;;;;;;;;;5023425;28;20214;-85
2023/06/29 02:33:06;;;;;;;3.00;2.70;;;;;;;;;;5020294;28;20256;-86
2023/06/29 02:35:34;;;;;;;3.97;3.63;;;;;;;;;;5020092;28;20281;-86
2023/06/29 02:38:01;;;;;;;3.70;3.07;;;;;;;;;;5020979;28;20295;-86
2023/06/29 02:40:28;;;;;;;4.60;2.90;;;;;;;;;;5023894;28;20211;-86
2023/06/29 02:42:55;;;;;;;3.10;2.80;;;;;;;;;;5025075;28;20215;-85
2023/06/29 02:45:22;;;;;;;3.10;2.70;;;;;;;;;;5026494;28;20810;-85
2023/06/29 02:47:49;;;;;;;3.40;3.07;;;;;;;;;;5026406;28;20202;-85
2023/06/29 02:50:16;;;;;;;3.20;2.90;;;;;;;;;;5023383;28;20314;-85
2023/06/29 02:52:45;;;;;;;3.40;2.80;;;;;;;;;;5023764;28;20735;-86
2023/06/29 02:55:12;;;;;;;6.07;3.30;;;;;;;;;;5026714;28;20684;-86
2023/06/29 02:57:39;;;;;;;5.03;3.00;;;;;;;;;;5027020;28;20211;-85
2023/06/29 03:00:08;;;;;;;3.50;3.00;;;;;;;;;;5016061;28;20242;-86
2023/06/29 03:02:35;;;;;;;3.10;2.77;;;;;;;;;;5048728;28;20203;-86
2023/06/29 03:05:02;;;;;;;3.37;2.80;;;;;;;;;;5047966;28;20228;-85
2023/06/29 03:07:29;;;;;;;4.67;2.67;;;;;;;;;;5048433;28;20195;-85
2023/06/29 03:09:57;;;;;;;6.00;2.80;;;;;;;;;;5048166;28;20235;-86
2023/06/29 03:12:24;;;;;;;3.33;3.00;;;;;;;;;;5042955;28;20222;-86
2023/06/29 03:14:51;;;;;;;2.93;2.70;;;;;;;;;;5052143;28;20243;-85
2023/06/29 03:17:18;;;;;;;3.30;2.83;;;;;;;;;;5046613;28;20203;-85
2023/06/29 03:19:45;;;;;;;3.50;2.50;;;;;;;;;;5032834;28;20604;-85
2023/06/29 03:22:12;;;;;;;2.87;2.67;;;;;;;;;;5025657;28;20207;-85
2023/06/29 03:24:39;;;;;;;3.97;2.80;;;;;;;;;;5024125;28;20237;-85
2023/06/29 03:27:08;;;;;;;5.20;2.90;;;;;;;;;;5027641;28;20219;-85
2023/06/29 03:29:35;;;;;;;3.13;2.70;;;;;;;;;;5026621;28;20234;-86
2023/06/29 03:32:02;;;;;;;2.77;2.57;;;;;;;;;;5034141;28;20210;-86
2023/06/29 03:34:29;;;;;;;3.00;2.63;;;;;;;;;;5056438;22;20237;-86
2023/06/29 03:36:57;;;;;;;4.83;3.40;;;;;;;;;;5044082;28;20619;-86
2023/06/29 03:39:24;;;;;;;3.17;2.87;;;;;;;;;;5037976;28;20225;-86
2023/06/29 03:41:51;;;;;;;3.97;2.83;;;;;;;;;;5044977;28;20229;-86
2023/06/29 03:44:19;;;;;;;3.43;2.83;;;;;;;;;;5041089;28;20368;-86
2023/06/29 03:46:46;;;;;;;5.53;3.20;;;;;;;;;;5041390;28;20222;-86
2023/06/29 03:49:13;;;;;;;3.53;3.03;;;;;;;;;;5044005;28;20226;-86
2023/06/29 03:51:40;;;;;;;4.50;3.10;;;;;;;;;;5045199;28;20585;-86
2023/06/29 03:54:07;;;;;;;3.70;2.87;;;;;;;;;;5041808;28;20238;-86
2023/06/29 03:56:34;;;;;;;3.77;3.30;;;;;;;;;;5041335;28;20698;-86
2023/06/29 03:59:01;;;;;;;3.40;3.20;;;;;;;;;;5042283;28;20238;-86
2023/06/29 04:01:30;;;;;;;3.60;3.30;;;;;;;;;;5044720;28;20214;-86
2023/06/29 04:03:57;;;;;;;3.13;2.83;;;;;;;;;;5043146;28;20237;-86
2023/06/29 04:06:24;;;;;;;5.47;3.47;;;;;;;;;;5040953;28;20222;-86
2023/06/29 04:08:51;;;;;;;6.30;3.63;;;;;;;;;;5039718;28;20238;-86
2023/06/29 04:11:18;;;;;;;5.03;3.30;;;;;;;;;;5044482;28;20209;-87
2023/06/29 04:13:45;;;;;;;6.00;3.60;;;;;;;;;;5036483;28;20269;-86
2023/06/29 04:16:12;;;;;;;3.97;3.57;;;;;;;;;;5040972;28;20207;-86
2023/06/29 04:18:40;;;;;;;5.73;3.77;;;;;;;;;;5038797;28;20234;-86
2023/06/29 04:21:07;;;;;;;5.03;3.87;;;;;;;;;;5041847;28;20210;-86
2023/06/29 04:23:35;;;;;;;5.23;3.97;;;;;;;;;;5040437;28;20238;-86
2023/06/29 04:26:03;;;;;;;4.73;3.90;;;;;;;;;;5042256;28;20569;-86
2023/06/29 04:28:30;;;;;;;5.30;3.80;;;;;;;;;;5038515;28;20234;-86
2023/06/29 04:30:57;;;;;;;5.40;3.73;;;;;;;;;;5041072;28;20237;-85
2023/06/29 04:33:24;;;;;;;6.23;4.07;;;;;;;;;;5047555;28;20261;-85
2023/06/29 04:35:53;;;;;;;4.50;3.70;;;;;;;;;;5048356;28;20233;-85
2023/06/29 04:38:27;;;;;;;3.67;3.23;;;;;;;;;;5032044;28;20234;-85
2023/06/29 04:41:03;;;;;;;4.17;3.53;;;;;;;;;;5040515;28;20220;-85
2023/06/29 04:43:30;;;;;;;5.00;3.60;;;;;;;;;;5040164;28;20249;-85
2023/06/29 04:45:57;;;;;;;5.10;3.80;;;;;;;;;;5040626;28;20689;-85
2023/06/29 04:48:28;;;;;;;5.77;4.00;;;;;;;;;;5043275;28;20260;-85
2023/06/29 04:51:04;;;;;;;5.30;4.37;;;;;;;;;;5043784;28;20202;-85
2023/06/29 04:53:32;;;;;;;4.73;3.93;;;;;;;;;;5043295;28;20606;-85
2023/06/29 04:55:59;;;;;;;6.23;4.70;;;;;;;;;;5042755;28;20252;-85
2023/06/29 04:58:26;;;;;;;5.43;4.03;;;;;;;;;;5039789;28;20241;-85
2023/06/29 05:00:54;;;;;;;11.10;4.57;;;;;;;;;;5039773;28;20676;-85
2023/06/29 05:03:21;;;;;;;4.53;3.60;;;;;;;;;;5043153;28;20693;-85
2023/06/29 05:05:48;;;;;;;4.53;4.03;;;;;;;;;;5044496;28;20642;-85
2023/06/29 05:08:17;;;;;;;7.57;4.50;;;;;;;;;;5039227;28;20698;-86
2023/06/29 05:10:44;;;;;;;6.93;4.40;;;;;;;;;;5040030;28;20213;-86
2023/06/29 05:13:11;;;;;;;5.50;4.17;;;;;;;;;;5049784;28;20626;-86
2023/06/29 05:15:38;;;;;;;5.47;4.60;;;;;;;;;;5043603;28;20234;-86
2023/06/29 05:18:05;;;;;;;5.30;4.80;;;;;;;;;;5041094;28;20208;-85
2023/06/29 05:20:32;;;;;;;5.13;4.57;;;;;;;;;;5039846;28;20623;-86
2023/06/29 05:23:00;;;;;;;5.53;4.33;;;;;;;;;;5039315;28;20225;-86
2023/06/29 05:25:28;;;;;;;5.87;4.97;;;;;;;;;;5040006;28;20230;-86
2023/06/29 05:27:56;;;;;;;6.40;5.13;;;;;;;;;;5031732;28;20211;-86
2023/06/29 05:30:23;;;;;;;6.97;5.17;;;;;;;;;;5031576;28;20242;-86
2023/06/29 05:32:50;;;;;;;5.63;5.13;;;;;;;;;;5031688;28;20611;-86
2023/06/29 05:35:17;;;;;;;7.27;5.60;;;;;;;;;;5030946;28;20242;-87
2023/06/29 05:37:44;;;;;;;6.20;5.60;;;;;;;;;;5031633;28;20207;-86
2023/06/29 05:40:12;;;;;;;6.10;5.50;;;;;;;;;;5031394;28;20238;-87
2023/06/29 05:42:41;;;;;;;6.23;5.50;;;;;;;;;;5032011;28;20289;-86
2023/06/29 05:45:08;;;;;;;5.70;5.10;;;;;;;;;;5031212;28;20242;-86
2023/06/29 05:47:35;;;;;;;8.23;6.07;;;;;;;;;;5031437;28;20803;-86
2023/06/29 05:50:04;;;;;;;6.90;5.40;;;;;;;;;;5031183;28;20234;-86
2023/06/29 05:52:33;;;;;;;6.90;5.30;;;;;;;;;;5031643;28;20215;-86
2023/06/29 05:55:00;;;;;;;6.27;5.50;;;;;;;;;;5031001;28;20238;-86
2023/06/29 05:57:27;;;;;;;6.70;5.20;;;;;;;;;;5031239;28;20206;-87
2023/06/29 05:59:56;;;;;;;5.67;4.83;;;;;;;;;;5030868;28;20246;-86
2023/06/29 06:02:23;;;;;;;8.50;5.20;;;;;;;;;;5031915;28;20222;-86
2023/06/29 06:04:50;;;;;;;6.77;4.80;;;;;;;;;;5031077;28;20834;-87
2023/06/29 06:07:27;;;;;;;4.90;4.40;;;;;;;;;;5030936;28;20716;-86
2023/06/29 06:09:54;;;;;;;5.43;4.60;;;;;;;;;;5030868;28;20234;-87
2023/06/29 06:12:21;;;;;;;5.07;4.53;;;;;;;;;;5032105;28;20241;-87
2023/06/29 06:14:48;;;;;;;5.50;4.10;;;;;;;;;;5034931;28;20235;-86
2023/06/29 06:17:16;;;;;;;5.40;4.05;;;;;;;;;;5034760;28;20211;-86
2023/06/29 06:19:44;;;;;;;5.97;4.05;;;;;;;;;;5034837;28;20238;-86
2023/06/29 06:22:11;;;;;;;5.70;3.90;;;;;;;;;;5035160;28;20218;-87
2023/06/29 06:24:38;;;;;;;4.43;3.60;;;;;;;;;;5034463;28;20246;-87
2023/06/29 06:27:05;;;;;;;4.43;3.88;;;;;;;;;;5034877;28;20248;-87
2023/06/29 06:29:32;;;;;;;6.97;3.90;;;;;;;;;;5034561;28;20241;-86
2023/06/29 06:31:59;;;;;;;4.28;3.60;;;;;;;;;;5035143;28;20233;-87
2023/06/29 06:34:30;;;;;;;6.10;3.63;;;;;;;;;;5035017;28;20584;-85
2023/06/29 06:36:58;;;;;;;3.65;3.33;;;;;;;;;;5034537;28;20230;-85
2023/06/29 06:39:26;;;;;;;3.53;3.15;;;;;;;;;;5034288;28;20744;-85
2023/06/29 06:41:53;;;;;;;6.35;3.15;;;;;;;;;;5036841;28;20206;-86
2023/06/29 06:44:20;;;;;;;3.58;3.28;;;;;;;;;;5034918;28;20239;-86
2023/06/29 06:46:47;;;;;;;3.72;2.75;;;;;;;;;;5036135;28;20643;-86
2023/06/29 06:49:15;;;;;;;4.18;3.05;;;;;;;;;;5034286;28;20239;-86
2023/06/29 06:51:43;;;;;;;5.72;2.78;;;;;;;;;;5034771;28;20219;-86
2023/06/29 06:54:10;;;;;;;3.53;2.80;;;;;;;;;;5034213;28;20238;-86
2023/06/29 06:56:37;;;;;;;2.95;2.75;;;;;;;;;;5034111;28;20206;-86
2023/06/29 06:59:06;;;;;;;3.35;2.72;;;;;;;;;;5034225;28;20234;-87
2023/06/29 07:01:34;;;;;;;5.05;3.97;;;;;;;;;;5034666;28;20264;-86
2023/06/29 07:04:01;;;;;;;4.50;2.83;;;;;;;;;;5033674;28;20246;-86
2023/06/29 07:06:30;;;;;;;3.00;2.63;;;;;;;;;;5034469;28;20575;-87
2023/06/29 07:09:00;;;;;;;2.95;2.75;;;;;;;;;;5033767;28;20230;-87
2023/06/29 07:11:27;;;;;;;3.13;2.83;;;;;;;;;;5034504;28;20240;-86
2023/06/29 07:13:54;;;;;;;2.65;2.35;;;;;;;;;;5033996;28;20266;-87
2023/06/29 07:16:23;;;;;;;5.47;2.47;;;;;;;;;;5034669;28;20676;-86
2023/06/29 07:19:03;;;;;;;2.60;2.40;;;;;;;;;;5034047;28;20245;-87
2023/06/29 07:21:30;;;;;;;3.95;2.60;;;;;;;;;;5034240;28;20692;-86
2023/06/29 07:23:57;;;;;;;4.20;2.20;;;;;;;;;;5034241;28;20742;-86
2023/06/29 07:26:25;;;;;;;6.35;2.50;;;;;;;;;;5035882;28;20553;-86
2023/06/29 07:28:52;;;;;;;4.05;2.40;;;;;;;;;;5033759;28;20238;-86
2023/06/29 07:31:19;;;;;;;2.90;2.55;;;;;;;;;;5033920;28;20214;-87
2023/06/29 07:33:47;;;;;;;4.22;2.40;;;;;;;;;;5033018;28;20249;-86
2023/06/29 07:36:14;;;;;;;5.07;2.42;;;;;;;;;;5033687;28;20297;-87
2023/06/29 07:38:41;;;;;;;2.67;2.47;;;;;;;;;;5033425;28;20234;-86
2023/06/29 07:41:09;;;;;;;5.20;2.55;;;;;;;;;;5033794;28;20207;-87
2023/06/29 07:43:38;;;;;;;3.05;2.10;;;;;;;;;;5033158;28;20342;-86
2023/06/29 07:46:05;;;;;;;4.50;2.40;;;;;;;;;;5033719;28;20203;-87
2023/06/29 07:48:32;;;;;;;2.28;1.85;;;;;;;;;;5032790;28;20301;-86
2023/06/29 07:50:59;;;;;;;2.30;2.00;;;;;;;;;;5033756;28;20241;-86
2023/06/29 07:53:26;;;;;;;3.50;2.00;;;;;;;;;;5032880;28;20311;-86
2023/06/29 07:55:53;;;;;;;3.15;2.30;;;;;;;;;;5033308;28;20230;-87
2023/06/29 07:58:20;;;;;;;2.30;2.00;;;;;;;;;;5032776;28;20234;-87
2023/06/29 08:00:49;;;;;;;3.60;2.08;;;;;;;;;;5033328;28;20210;-87
2023/06/29 08:03:16;;;;;;;2.25;2.00;;;;;;;;;;5032897;28;20242;-86
2023/06/29 08:05:43;;;;;;;1.70;1.60;;;;;;;;;;5033066;28;20708;-87
2023/06/29 08:08:10;;;;;;;2.22;1.98;;;;;;;;;;5032476;28;20226;-86
2023/06/29 08:10:37;;;;;;;3.25;1.75;;;;;;;;;;5033009;28;20719;-86
2023/06/29 08:13:04;;;;;;;1.80;1.48;;;;;;;;;;5032534;28;20211;-87
2023/06/29 08:15:31;;;;;;;2.05;1.73;;;;;;;;;;5033040;28;20223;-87
2023/06/29 08:18:00;;;;;;;2.92;1.80;;;;;;;;;;5032565;28;20206;-86
2023/06/29 08:20:27;;;;;;;2.20;1.70;;;;;;;;;;5033174;28;20211;-87
2023/06/29 08:22:54;;;;;;;1.75;1.60;;;;;;;;;;5033231;28;20214;-87
2023/06/29 08:25:22;;;;;;;2.47;2.00;;;;;;;;;;5032227;28;20234;-87
2023/06/29 08:27:49;;;;;;;4.15;1.98;;;;;;;;;;5032943;28;20226;-87
2023/06/29 08:30:16;;;;;;;3.42;1.60;;;;;;;;;;5032346;28;20238;-87
2023/06/29 08:32:45;;;;;;;4.22;1.80;;;;;;;;;;5033070;28;20257;-87
2023/06/29 08:35:13;;;;;;;1.65;1.55;;;;;;;;;;5030976;28;20439;-87
2023/06/29 08:37:40;;;;;;;1.63;1.50;;;;;;;;;;5032720;28;20218;-87
2023/06/29 08:40:08;;;;;;;3.88;1.50;;;;;;;;;;5032030;28;20242;-88
2023/06/29 08:42:35;;;;;;;2.90;1.20;;;;;;;;;;5032950;28;20207;-87
2023/06/29 08:45:02;;;;;;;2.63;1.73;;;;;;;;;;5031870;28;20238;-87
2023/06/29 08:47:29;;;;;;;2.08;1.65;;;;;;;;;;5032087;28;20226;-88
2023/06/29 08:49:57;;;;;;;2.13;1.52;;;;;;;;;;5031994;28;20238;-87
2023/06/29 08:52:27;;;;;;;2.22;1.60;;;;;;;;;;5032668;28;20207;-87
2023/06/29 08:54:54;;;;;;;1.95;1.80;;;;;;;;;;5031839;28;20245;-88
2023/06/29 08:57:22;;;;;;;2.13;1.52;;;;;;;;;;5032319;28;20211;-88
2023/06/29 08:59:50;;;;;;;1.83;1.55;;;;;;;;;;5031873;28;20229;-88
2023/06/29 09:02:17;;;;;;;2.13;1.50;;;;;;;;;;5032816;28;20207;-87
2023/06/29 09:04:45;;;;;;;1.50;1.40;;;;;;;;;;5031885;28;20238;-87
2023/06/29 09:07:14;;;;;;;2.00;1.80;;;;;;;;;;5031745;28;20222;-87
2023/06/29 09:09:43;;;;;;;3.42;1.40;;;;;;;;;;5031788;28;20238;-88
2023/06/29 09:12:10;;;;;;;2.25;1.65;;;;;;;;;;5032360;28;20211;-88
2023/06/29 09:14:43;;;;;;;1.48;1.38;;;;;;;;;;5031645;28;20296;-88
2023/06/29 09:17:14;;;;;;;3.38;1.55;;;;;;;;;;5032038;28;20269;-88
2023/06/29 09:19:43;;;;;;;1.20;1.10;;;;;;;;;;5031691;28;20242;-88
2023/06/29 09:22:10;;;;;;;1.58;1.42;;;;;;;;;;5031793;28;20634;-88
2023/06/29 09:24:39;;;;;;;2.38;1.50;;;;;;;;;;5031551;28;20385;-88
2023/06/29 09:27:07;;;;;;;1.55;1.45;;;;;;;;;;5031559;28;20601;-88
2023/06/29 09:29:37;;;;;;;1.67;1.30;;;;;;;;;;5031531;28;20236;-88
2023/06/29 09:32:05;;;;;;;1.30;1.27;;;;;;;;;;5032327;28;20241;-88
2023/06/29 09:34:32;;;;;;;1.70;1.50;;;;;;;;;;5031314;28;20242;-88
2023/06/29 09:36:59;;;;;;;2.10;1.67;;;;;;;;;;5063755;23;20785;-83
2023/06/29 09:39:26;;;;;;;1.73;1.60;;;;;;;;;;5041841;28;20297;-84
2023/06/29 09:41:55;;;;;;;3.38;2.08;;;;;;;;;;5045534;28;20653;-83
2023/06/29 09:44:24;;;;;;;2.35;1.45;;;;;;;;;;5041220;28;20230;-83
2023/06/29 09:46:52;;;;;;;1.92;1.40;;;;;;;;;;5047117;28;20233;-84
2023/06/29 09:49:20;;;;;;;2.15;1.30;;;;;;;;;;5051879;28;20237;-84
2023/06/29 09:51:48;;;;;;;2.88;1.50;;;;;;;;;;5044217;28;20217;-84
2023/06/29 09:54:16;;;;;;;1.25;1.10;;;;;;;;;;5044358;28;20225;-83
2023/06/29 09:56:44;;;;;;;1.42;1.33;;;;;;;;;;5046941;28;20222;-84
2023/06/29 09:59:11;;;;;;;1.60;1.50;;;;;;;;;;5046616;28;20225;-83
2023/06/29 10:01:40;;;;;;;1.48;1.38;;;;;;;;;;5048833;28;20276;-83
2023/06/29 10:04:08;;;;;;;1.98;1.60;;;;;;;;;;5042625;28;20258;-83
2023/06/29 10:06:39;;;;;;;1.80;1.67;;;;;;;;;;5047128;28;20222;-84
2023/06/29 10:09:06;;;;;;;1.40;1.30;;;;;;;;;;5046299;28;20229;-83
2023/06/29 10:11:36;;;;;;;2.55;1.63;;;;;;;;;;5043189;28;20208;-83
2023/06/29 10:14:04;;;;;;;2.03;1.40;;;;;;;;;;5043047;28;20225;-83
2023/06/29 10:16:34;;;;;;;3.10;1.60;;;;;;;;;;5045948;28;20287;-83
2023/06/29 10:19:06;;;;;;;2.00;1.60;;;;;;;;;;5046082;28;20230;-84
2023/06/29 10:21:33;;;;;;;1.70;1.45;;;;;;;;;;5043939;28;20554;-83
2023/06/29 10:24:01;;;;;;;3.78;1.50;;;;;;;;;;5042522;28;20234;-84
2023/06/29 10:26:29;;;;;;;1.48;1.38;;;;;;;;;;5044990;28;20229;-84
2023/06/29 10:28:56;;;;;;;2.97;1.40;;;;;;;;;;5045787;28;20236;-83
2023/06/29 10:31:32;;;;;;;1.55;1.45;;;;;;;;;;5044526;28;20210;-83
2023/06/29 10:34:00;;;;;;;2.55;1.52;;;;;;;;;;5042440;28;20744;-84
2023/06/29 10:36:44;;;;;;;2.13;1.80;;;;;;;;;;5044769;28;20230;-83
2023/06/29 10:39:30;;;;;;;2.28;1.55;;;;;;;;;;5045545;28;20222;-84
2023/06/29 10:41:57;;;;;;;1.50;1.40;;;;;;;;;;5039848;28;20238;-83
2023/06/29 10:44:35;;;;;;;1.50;1.40;;;;;;;;;;5043731;28;20236;-83
2023/06/29 10:47:03;;;;;;;1.55;1.30;;;;;;;;;;5045477;28;20711;-83
2023/06/29 10:49:30;;;;;;;2.20;1.50;;;;;;;;;;5042807;28;20234;-84
2023/06/29 10:52:03;;;;;;;2.15;1.60;;;;;;;;;;5048561;28;20216;-84
2023/06/29 10:54:30;;;;;;;1.60;1.48;;;;;;;;;;5043070;28;20234;-83
2023/06/29 10:56:58;;;;;;;2.05;1.40;;;;;;;;;;5042293;28;20315;-83
2023/06/29 10:59:25;;;;;;;2.20;1.60;;;;;;;;;;5041122;28;20325;-83
2023/06/29 11:01:52;;;;;;;2.35;1.33;;;;;;;;;;5048401;28;20199;-83
2023/06/29 11:04:19;;;;;;;4.07;1.70;;;;;;;;;;5042421;28;20226;-84
2023/06/29 11:06:46;;;;;;;2.47;1.75;;;;;;;;;;5045203;28;20225;-84
2023/06/29 11:09:15;;;;;;;3.20;1.70;;;;;;;;;;5044726;28;20226;-83
2023/06/29 11:11:43;;;;;;;2.40;1.58;;;;;;;;;;5038338;28;20203;-84
2023/06/29 11:14:12;;;;;;;1.92;1.70;;;;;;;;;;5044822;28;20727;-84
2023/06/29 11:16:42;;;;;;;2.00;1.77;;;;;;;;;;5033923;28;20227;-84
2023/06/29 11:19:10;;;;;;;1.90;1.80;;;;;;;;;;5041212;28;20231;-84
2023/06/29 11:21:38;;;;;;;3.35;1.75;;;;;;;;;;5041952;28;20259;-84
2023/06/29 11:24:05;;;;;;;2.30;2.10;;;;;;;;;;5040984;28;20226;-83
2023/06/29 11:26:33;;;;;;;2.47;2.13;;;;;;;;;;5050326;28;20258;-84
2023/06/29 11:29:01;;;;;;;2.85;1.77;;;;;;;;;;5041276;28;20246;-85
2023/06/29 11:31:28;;;;;;;3.03;2.10;;;;;;;;;;5033959;28;20579;-84
2023/06/29 11:33:56;;;;;;;4.30;1.90;;;;;;;;;;5033575;28;20245;-85
2023/06/29 11:36:30;;;;;;;3.05;1.70;;;;;;;;;;5034048;28;20611;-84
2023/06/29 11:39:08;;;;;;;1.70;1.60;;;;;;;;;;5033900;28;20238;-84
2023/06/29 11:41:36;;;;;;;3.45;2.00;;;;;;;;;;5034383;28;20564;-83
2023/06/29 11:44:03;;;;;;;3.42;1.80;;;;;;;;;;5033354;28;20253;-84
2023/06/29 11:46:33;;;;;;;3.22;1.85;;;;;;;;;;5033443;28;20234;-85
2023/06/29 11:49:01;;;;;;;3.00;1.95;;;;;;;;;;5032983;28;20249;-84
2023/06/29 11:51:29;;;;;;;2.72;1.60;;;;;;;;;;5033281;28;20203;-84
2023/06/29 11:53:56;;;;;;;2.22;1.77;;;;;;;;;;5032950;28;20304;-83
2023/06/29 11:56:26;;;;;;;2.13;1.85;;;;;;;;;;5033045;28;20710;-84
2023/06/29 11:58:55;;;;;;;1.83;1.50;;;;;;;;;;5032547;28;20261;-84
2023/06/29 12:01:22;;;;;;;2.35;2.05;;;;;;;;;;5033101;28;20211;-84
2023/06/29 12:03:49;;;;;;;1.73;1.45;;;;;;;;;;5032277;28;20627;-84
2023/06/29 12:06:16;;;;;;;2.08;1.65;;;;;;;;;;5032644;28;20226;-83
2023/06/29 12:08:44;;;;;;;2.78;1.55;;;;;;;;;;5032514;28;20242;-84
2023/06/29 12:11:17;;;;;;;2.38;1.80;;;;;;;;;;5032134;28;20252;-83
2023/06/29 12:13:45;;;;;;;2.10;1.55;;;;;;;;;;5032711;28;20268;-84
2023/06/29 12:16:13;;;;;;;1.85;1.63;;;;;;;;;;5032881;28;20357;-84
2023/06/29 12:18:42;;;;;;;2.92;1.92;;;;;;;;;;5032078;28;20728;-84
2023/06/29 12:21:09;;;;;;;2.15;1.55;;;;;;;;;;5032762;28;20668;-84
2023/06/29 12:23:36;;;;;;;3.70;1.60;;;;;;;;;;5032227;28;20238;-84
2023/06/29 12:26:04;;;;;;;3.67;2.35;;;;;;;;;;5032495;28;20241;-84
2023/06/29 12:28:32;;;;;;;5.55;1.63;;;;;;;;;;5031876;28;20726;-85
2023/06/29 12:30:59;;;;;;;2.17;1.58;;;;;;;;;;5033954;28;20676;-86
2023/06/29 12:33:27;;;;;;;3.83;1.90;;;;;;;;;;5033538;28;20781;-86
2023/06/29 12:35:55;;;;;;;5.03;2.10;;;;;;;;;;5034748;28;20619;-88
2023/06/29 12:38:22;;;;;;;2.17;1.90;;;;;;;;;;5034741;28;20234;-88
2023/06/29 12:40:49;;;;;;;2.00;1.83;;;;;;;;;;5035323;28;20211;-86
2023/06/29 12:43:16;;;;;;;1.88;1.58;;;;;;;;;;5032590;28;20226;-87
2023/06/29 12:45:43;;;;;;;1.80;1.70;;;;;;;;;;5033298;28;20227;-87
2023/06/29 12:48:10;;;;;;;3.42;1.88;;;;;;;;;;5032311;28;20237;-87
2023/06/29 12:50:39;;;;;;;2.30;1.90;;;;;;;;;;5033003;28;20203;-86
2023/06/29 12:53:06;;;;;;;3.30;1.80;;;;;;;;;;5033439;28;20207;-87
2023/06/29 12:55:33;;;;;;;1.95;1.67;;;;;;;;;;5033683;28;20233;-86
2023/06/29 12:58:00;;;;;;;2.25;1.88;;;;;;;;;;5032608;28;20218;-87
2023/06/29 13:00:27;;;;;;;4.28;1.98;;;;;;;;;;5032986;28;20206;-87
2023/06/29 13:02:54;;;;;;;2.47;2.00;;;;;;;;;;5033942;28;20250;-87
2023/06/29 13:05:21;;;;;;;1.98;1.83;;;;;;;;;;5032383;28;20858;-87
2023/06/29 13:07:50;;;;;;;5.93;2.70;;;;;;;;;;5033578;28;20217;-87
2023/06/29 13:10:17;;;;;;;2.78;1.80;;;;;;;;;;5031620;28;20245;-86
2023/06/29 13:12:44;;;;;;;2.53;2.30;;;;;;;;;;5032573;28;20202;-86
2023/06/29 13:15:11;;;;;;;4.72;2.85;;;;;;;;;;5031848;28;20240;-86
2023/06/29 13:17:38;;;;;;;2.17;1.95;;;;;;;;;;5032446;28;20202;-86
2023/06/29 13:20:06;;;;;;;2.53;2.20;;;;;;;;;;5032502;28;20237;-87
2023/06/29 13:22:33;;;;;;;3.55;2.25;;;;;;;;;;5032272;28;20210;-85
2023/06/29 13:25:01;;;;;;;3.63;2.20;;;;;;;;;;5031857;28;20261;-86
2023/06/29 13:27:28;;;;;;;2.53;2.13;;;;;;;;;;5031546;28;20261;-86
2023/06/29 13:29:56;;;;;;;3.30;2.30;;;;;;;;;;5031401;28;20242;-86
2023/06/29 13:32:23;;;;;;;2.88;2.28;;;;;;;;;;5031666;28;20207;-86
2023/06/29 13:34:50;;;;;;;5.05;2.53;;;;;;;;;;5031485;28;20240;-86
2023/06/29 13:37:17;;;;;;;2.42;2.05;;;;;;;;;;5031355;28;20238;-85
2023/06/29 13:39:44;;;;;;;4.97;2.28;;;;;;;;;;5031387;28;20235;-86
2023/06/29 13:42:15;;;;;;;2.90;2.25;;;;;;;;;;5031695;28;20202;-85
2023/06/29 13:44:42;;;;;;;3.80;2.25;;;;;;;;;;5031387;28;20258;-86
2023/06/29 13:47:10;;;;;;;2.60;2.40;;;;;;;;;;5031709;28;20241;-85
2023/06/29 13:49:39;;;;;;;3.20;2.50;;;;;;;;;;5031798;28;20234;-86
2023/06/29 13:52:06;;;;;;;4.00;2.45;;;;;;;;;;5032062;28;20294;-84
2023/06/29 13:54:33;;;;;;;4.32;2.72;;;;;;;;;;5031460;28;20300;-85
2023/06/29 13:57:00;;;;;;;2.65;2.13;;;;;;;;;;5032073;28;20277;-86
2023/06/29 13:59:29;;;;;;;4.78;1.95;;;;;;;;;;5031015;28;20237;-84
2023/06/29 14:01:56;;;;;;;3.72;2.55;;;;;;;;;;5051674;28;20202;-85
2023/06/29 14:04:24;;;;;;;3.33;2.25;;;;;;;;;;5052674;28;20243;-85
2023/06/29 14:06:51;;;;;;;3.72;2.30;;;;;;;;;;5051709;28;20299;-85
2023/06/29 14:09:19;;;;;;;3.75;2.40;;;;;;;;;;5051111;28;20238;-85
2023/06/29 14:11:47;;;;;;;2.60;2.40;;;;;;;;;;5051820;28;20225;-84
2023/06/29 14:14:14;;;;;;;2.55;2.00;;;;;;;;;;5050970;28;20244;-85
2023/06/29 14:16:43;;;;;;;3.45;2.35;;;;;;;;;;5051644;28;20222;-84
2023/06/29 14:19:10;;;;;;;2.00;1.90;;;;;;;;;;5050785;28;20280;-85
2023/06/29 14:21:37;;;;;;;2.28;2.08;;;;;;;;;;5051670;28;20218;-85
2023/06/29 14:24:04;;;;;;;2.75;2.03;;;;;;;;;;5050606;28;20241;-85
2023/06/29 14:26:31;;;;;;;3.22;2.45;;;;;;;;;;5050915;28;20262;-86
2023/06/29 14:28:58;;;;;;;3.80;2.17;;;;;;;;;;5050636;28;20707;-85
2023/06/29 14:31:25;;;;;;;3.97;2.53;;;;;;;;;;5051437;28;20214;-85
2023/06/29 14:33:54;;;;;;;3.45;2.42;;;;;;;;;;5052258;28;20241;-85
2023/06/29 14:36:21;;;;;;;3.30;2.22;;;;;;;;;;5054641;28;20272;-86
2023/06/29 14:38:48;;;;;;;2.13;1.92;;;;;;;;;;5054290;28;20257;-85
2023/06/29 14:41:15;;;;;;;2.65;2.45;;;;;;;;;;5054676;28;20210;-85
2023/06/29 14:43:42;;;;;;;2.63;2.13;;;;;;;;;;5054370;28;20233;-85
2023/06/29 14:46:10;;;;;;;3.10;2.30;;;;;;;;;;5054573;28;20581;-86